1929 Tropical Cyclone NOT_NAMED (1929055S14153)


IBTrACS version v04r00. Visit IBTrACS website for data access.
Please direct all questions to the IBTrACS Q and A forum

Storm track - Intensity - Wind Radii - Intensity Data - Source Data - All data

Summary Information

Storm ID 1929055S14153
Start Feb 23 23Z
Landfall Feb 25 18Z, Feb 26 15Z
Max Intensity 55 kt (Feb 25 00Z), 985 mb (Feb 24 23Z)
End Mar 3 23Z
ATCF IDs
Track status Best track data.

Storm track plot

Map of storm track

Intensity plots

Map of storm track

Radial wind information

No radial wind information for this storm


Position and Intensity Table

BASIN ISO_TIME_________ NATURE LAT LON WMO PRES BOM PRES DS824 WIND DS824 PRES
degrees north degrees east mb mb kts mb
SP 1929-02-23 23:00:00 NR -14.35 152.95
SP 1929-02-24 00:00:00 NR -14.37 152.74
SP 03:00:00 NR -14.44 152.10
SP 06:00:00 NR -14.50 151.45
SP 09:00:00 NR -14.57 150.80
SP 11:00:00 NR -14.62 150.37
SP 12:00:00 TS -14.63 150.15
SP 13:00:00 TS -14.65 149.94
SP 15:00:00 TS -14.72 149.51
SP 18:00:00 TS -14.83 148.89
SP 21:00:00 TS -14.96 148.28
SP 23:00:00 TS -15.05 147.90 985 985
SP 1929-02-25 00:00:00 TS -15.09 147.72 55 985
SP 03:00:00 TS -15.22 147.22
SP 06:00:00 TS -15.35 146.77
SP 09:00:00 TS -15.51 146.38
SP 11:00:00 TS -15.63 146.14
SP 12:00:00 TS -15.69 146.02
SP 15:00:00 TS -15.92 145.69
SP 18:00:00 TS -16.18 145.40
SP 20:00:00 TS -16.38 145.24
SP 21:00:00 TS -16.47 145.16
SP 23:00:00 TS -16.69 145.06
SP 1929-02-26 00:00:00 TS -16.82 145.04
SP 03:00:00 TS -17.27 145.12
SP 04:00:00 TS -17.43 145.19
SP 06:00:00 TS -17.76 145.37
SP 09:00:00 TS -18.28 145.75
SP 11:00:00 TS -18.62 146.08
SP 12:00:00 TS -18.79 146.25
SP 14:00:00 TS -19.11 146.61
SP 15:00:00 TS -19.26 146.81
SP 18:00:00 TS -19.69 147.40
SP 21:00:00 TS -20.06 148.03
SP 23:00:00 TS -20.18 148.27
SP 1929-02-27 00:00:00 TS -20.14 148.17
SP 03:00:00 TS -20.18 148.11
SP 06:00:00 NR -19.86 147.39
SP 09:00:00 NR -20.07 147.76
SP 11:00:00 NR -20.20 148.00
SP 12:00:00 NR -20.25 148.10
SP 15:00:00 NR -20.40 148.41
SP 18:00:00 NR -20.56 148.74
SP 21:00:00 NR -20.74 149.11
SP 23:00:00 NR -20.90 149.40
SP 23:30:00 NR -20.94 149.49
SP 1929-02-28 00:00:00 NR -20.99 149.57
SP 02:00:00 NR -21.19 149.95
SP 03:00:00 NR -21.30 150.15
SP 06:00:00 NR -21.67 150.78
SP 09:00:00 NR -22.09 151.41
SP 11:00:00 NR -22.40 151.80
SP 12:00:00 NR -22.58 151.98
SP 15:00:00 NR -23.58 152.90
SP 18:00:00 NR -24.30 153.50
SP 21:00:00 NR -24.84 153.93
SP 23:00:00 NR -25.15 154.20
SP 23:30:00 NR -25.21 154.25
SP 1929-03-01 00:00:00 NR -25.27 154.31
SP 03:00:00 NR -25.49 154.52
SP 06:00:00 NR -25.60 154.64
SP 09:00:00 NR -25.51 154.58
SP 11:00:00 NR -25.10 154.20
SP 12:00:00 NR -25.12 154.22
SP 15:00:00 NR -25.16 154.24
SP 18:00:00 NR -25.23 154.29
SP 21:00:00 NR -25.40 154.43
SP 23:00:00 NR -25.60 154.60
SP 1929-03-02 00:00:00 TS -26.60 155.57
SP 03:00:00 NR -26.33 155.27
SP 06:00:00 NR -27.01 155.92
SP 09:00:00 NR -27.69 156.58
SP 11:00:00 NR -28.10 157.00
SP 12:00:00 NR -28.27 157.18
SP 15:00:00 NR -28.72 157.67
SP 18:00:00 NR -29.10 158.11
SP 21:00:00 NR -30.02 158.93
SP 23:00:00 NR -30.20 159.12
SP 1929-03-03 00:00:00 NR -29.68 158.79
SP 03:00:00 NR -29.88 159.02
SP 06:00:00 NR -30.04 159.20
SP 09:00:00 NR -30.19 159.37
SP 11:00:00 NR -30.30 159.50
SP 12:00:00 NR -30.36 159.57
SP 15:00:00 NR -30.56 159.81
SP 18:00:00 NR -30.79 160.09
SP 21:00:00 NR -31.03 160.39
SP 23:00:00 NR -31.20 160.60

Source Information

Agency Information
USA
TOKYO
CMA
HKO
NEWDELHI
REUNION
BOM IDCKMSTM0S.csv:Line=687:unnamed
NADI
WELLINGTON
DS824 aus_area.dat:67:NOT NAMED
TD9636 cons_worldwide_trop_cyclone_18710101-19891231-006:Line=1738
TD9635
NEUMANN
MLC

All available IBTrACS Data

SEASON BASIN SUBBASIN ISO_TIME_________ NATURE LAT LON WMO PRES WMO AGENCY DIST2LAND LANDFALL IFLAG USA SSHS BOM LAT BOM LON BOM PRES BOM PRES_METHOD DS824 LAT DS824 LON DS824 STAGE DS824 WIND DS824 PRES TD9636 LAT TD9636 LON TD9636 STAGE STORM SPEED STORM DIR
Year degrees north degrees east mb km km 1 degrees north degrees east mb degrees north degrees east kts mb degrees north degrees east kts degrees
1929 SP EA 1929-02-23 23:00:00 NR -14.35 152.95 bom 483 482 ______O___O___ -1 -14.40 152.90 -14.30 153.00 7 12 264
1929 SP EA 1929-02-24 00:00:00 NR -14.37 152.74 477 451 ______P___P___ -1 -14.40 152.70 -14.35 152.78 7 12 264
1929 SP EA 03:00:00 NR -14.44 152.10 451 441 ______P___P___ -1 -14.38 152.09 -14.49 152.10 7 13 264
1929 SP EA 06:00:00 NR -14.50 151.45 441 430 ______P___P___ -1 -14.39 151.48 -14.62 151.43 7 13 264
1929 SP EA 09:00:00 NR -14.57 150.80 438 436 ______P___P___ -1 -14.41 150.85 -14.73 150.75 7 13 263
1929 SP EA 11:00:00 NR -14.62 150.37 436 436 ______P___O___ -1 -14.45 150.43 -14.80 150.30 7 13 265
1929 SP EA 12:00:00 TS -14.63 150.15 436 436 ______P__OP___ -1 -14.47 150.22 -14.50 150.20 TC -14.83 150.07 7 12 266
1929 SP EA 13:00:00 TS -14.65 149.94 bom 449 445 ______O__PP___ -1 -14.50 150.00 -14.55 150.00 TC -14.86 149.85 7 12 262
1929 SP EA 15:00:00 TS -14.72 149.51 445 380 ______P__PP___ -1 -14.57 149.56 -14.65 149.60 TC -14.90 149.40 7 12 260
1929 SP EA 18:00:00 TS -14.83 148.89 380 313 ______P__PP___ -1 -14.72 148.91 -14.80 148.99 TC -14.97 148.76 7 12 258
1929 SP EA 21:00:00 TS -14.96 148.28 313 270 ______P__PP___ -1 -14.88 148.28 -14.95 148.39 TC -15.04 148.16 7 12 257
1929 SP EA 23:00:00 TS -15.05 147.90 985 bom 269 247 ______O__PO___ -1 -15.00 147.90 985 4 -15.05 148.00 TC -15.10 147.80 7 11 256
1929 SP EA 1929-02-25 00:00:00 TS -15.09 147.72 247 193 ______P__OP___ -1 -15.05 147.73 -15.10 147.80 TC 55 985 -15.13 147.63 7 10 256
1929 SP EA 03:00:00 TS -15.22 147.22 193 150 ______P__PP___ -1 -15.19 147.29 -15.24 147.21 TC -15.21 147.16 7 10 254
1929 SP EA 06:00:00 TS -15.35 146.77 150 109 ______P__PP___ -1 -15.34 146.91 -15.39 146.66 TC -15.32 146.76 7 9 250
1929 SP EA 09:00:00 TS -15.51 146.38 109 91 ______P__PP___ -1 -15.50 146.58 -15.55 146.15 TC -15.47 146.41 7 8 246
1929 SP EA 11:00:00 TS -15.63 146.14 82 68 ______P__PO___ -1 -15.61 146.37 -15.67 145.84 TC -15.60 146.20 7 8 242
1929 SP EA 12:00:00 TS -15.69 146.02 68 30 ______P__PP___ -1 -15.68 146.27 -15.73 145.70 TC -15.68 146.08 7 8 236
1929 SP EA 15:00:00 TS -15.92 145.69 30 0 ______P__PP___ -1 -15.88 145.97 -15.94 145.34 TC -15.94 145.74 7 8 231
1929 SP EA 18:00:00 TS -16.18 145.40 0 0 ______P__PP___ -1 -16.12 145.64 -16.18 145.09 TC -16.25 145.47 7 8 223
1929 SP EA 20:00:00 TS -16.38 145.24 bom 0 0 ______O__PP___ -1 -16.30 145.40 -16.36 145.00 TC -16.46 145.33 7 7 218
1929 SP EA 21:00:00 TS -16.47 145.16 0 0 ______P__PP___ -1 -16.38 145.25 -16.46 144.97 TC -16.58 145.27 7 7 209
1929 SP EA 23:00:00 TS -16.69 145.06 bom 0 0 ______O__PO___ -1 -16.60 145.00 -16.68 144.97 TC -16.80 145.20 7 7 200
1929 SP EA 1929-02-26 00:00:00 TS -16.82 145.04 0 0 ______P__OP___ -1 -16.76 144.93 -16.80 145.00 TC -16.91 145.18 7 9 175
1929 SP EA 03:00:00 TS -17.27 145.12 0 0 ______P__PP___ -1 -17.37 144.93 -17.21 145.22 TC -17.23 145.19 7 10 167
1929 SP EA 04:00:00 TS -17.43 145.19 bom 0 0 ______O__PP___ -1 -17.60 145.00 -17.35 145.33 TC -17.34 145.21 7 11 155
1929 SP EA 06:00:00 TS -17.76 145.37 0 0 ______P__PP___ -1 -18.05 145.18 -17.67 145.60 TC -17.56 145.29 7 12 147
1929 SP EA 09:00:00 TS -18.28 145.75 0 0 ______P__PP___ -1 -18.76 145.65 -18.17 146.10 TC -17.89 145.46 7 13 142
1929 SP EA 11:00:00 TS -18.62 146.08 0 0 ______P__PO___ -1 -19.22 146.08 -18.52 146.50 TC -18.10 145.60 7 14 137
1929 SP EA 12:00:00 TS -18.79 146.25 0 0 ______P__PP___ -1 -19.44 146.32 -18.70 146.71 TC -18.21 145.66 7 14 134
1929 SP EA 14:00:00 TS -19.11 146.61 10 0 ______P__PP___ -1 -19.83 146.83 -19.06 147.16 TC -18.42 145.79 7 14 132
1929 SP EA 15:00:00 TS -19.26 146.81 bom 0 0 ______O__PP___ -1 -20.00 147.10 -19.25 147.39 TC -18.52 145.86 7 14 128
1929 SP EA 18:00:00 TS -19.69 147.40 0 0 ______P__PP___ -1 -20.43 147.91 -19.80 148.12 TC -18.83 146.11 7 14 125
1929 SP EA 21:00:00 TS -20.06 148.03 bom 0 0 ______O__PP___ -1 -20.70 148.80 -20.36 148.87 TC -19.12 146.39 7 11 121
1929 SP EA 23:00:00 TS -20.18 148.27 bom 0 0 ______O__PO___ -1 -20.80 149.40 -20.72 149.36 TC -19.30 146.60 7 3 120
1929 SP EA 1929-02-27 00:00:00 TS -20.14 148.17 0 0 ______P__OP___ -1 -20.85 149.69 -20.90 149.60 TC -19.39 146.70 7 2 269
1929 SP EA 03:00:00 TS -20.18 148.11 0 0 ______P___P___ -1 -21.03 150.47 TC -19.63 147.04 7 8 291
1929 SP EA 06:00:00 NR -19.86 147.39 0 0 ______P___P___ -1 -21.22 151.15 TC -19.86 147.39 7 4 288
1929 SP EA 09:00:00 NR -20.07 147.76 bom 0 0 ______P___P___ -1 -21.44 151.73 TC -20.07 147.76 7 8 121
1929 SP EA 11:00:00 NR -20.20 148.00 0 0 ______P___O___ -1 -21.59 152.07 TC -20.20 148.00 7 8 120
1929 SP EA 12:00:00 NR -20.25 148.10 0 0 ______P___P___ -1 -21.68 152.23 TC -20.25 148.10 7 7 118
1929 SP EA 15:00:00 NR -20.40 148.41 0 0 ______P___P___ -1 -21.94 152.65 TC -20.40 148.41 7 7 117
1929 SP EA 18:00:00 NR -20.56 148.74 10 10 ______P___P___ -1 -22.21 153.01 TC -20.56 148.74 7 7 117
1929 SP EA 21:00:00 NR -20.74 149.11 30 24 ______P___P___ -1 -22.51 153.30 TC -20.74 149.11 7 8 119
1929 SP EA 23:00:00 NR -20.90 149.40 bom 30 30 ______P___O___ -1 -22.72 153.47 TC -20.90 149.40 7 10 120
1929 SP EA 23:30:00 NR -20.94 149.49 38 33 ______P___P___ -1 -22.78 153.51 TC -20.94 149.49 7 11 119
1929 SP EA 1929-02-28 00:00:00 NR -20.99 149.57 42 42 ______P___P___ -1 -22.83 153.55 TC -20.99 149.57 7 12 119
1929 SP EA 02:00:00 NR -21.19 149.95 75 75 ______P___P___ -1 -23.05 153.69 TC -21.19 149.95 7 12 120
1929 SP EA 03:00:00 NR -21.30 150.15 89 88 ______P___P___ -1 -23.16 153.76 TC -21.30 150.15 7 14 122
1929 SP EA 06:00:00 NR -21.67 150.78 78 68 ______P___P___ -1 -23.51 153.94 TC -21.67 150.78 7 14 124
1929 SP EA 09:00:00 NR -22.09 151.41 76 76 ______P___P___ -1 -23.87 154.09 TC -22.09 151.41 7 14 128
1929 SP EA 11:00:00 NR -22.40 151.80 103 103 ______P___O___ -1 -24.12 154.19 TC -22.40 151.80 7 15 133
1929 SP EA 12:00:00 NR -22.58 151.98 123 120 ______P___P___ -1 -24.25 154.23 TC -22.58 151.98 7 23 139
1929 SP EA 15:00:00 NR -23.58 152.90 121 59 ______P___P___ -1 -24.63 154.37 TC -23.17 152.51 7 22 141
1929 SP EA 18:00:00 NR -24.30 153.50 59 45 ______P___P___ -1 -25.03 154.52 TC -23.77 152.98 7 16 143
1929 SP EA 21:00:00 NR -24.84 153.93 55 55 ______P___P___ -1 -25.43 154.68 TC -24.31 153.38 7 13 143
1929 SP EA 23:00:00 NR -25.15 154.20 bom 81 83 ______O___O___ -1 -25.70 154.80 TC -24.60 153.60 7 11 142
1929 SP EA 23:30:00 NR -25.21 154.25 93 93 ______P___P___ -1 -25.77 154.83 TC -24.65 153.65 7 9 139
1929 SP EA 1929-03-01 00:00:00 NR -25.27 154.31 96 96 ______P___P___ -1 -25.84 154.87 TC -24.70 153.69 7 6 139
1929 SP EA 03:00:00 NR -25.49 154.52 123 123 ______P___P___ -1 -26.25 155.08 TC -24.90 153.91 7 4 138
1929 SP EA 06:00:00 NR -25.60 154.64 137 132 ______P___P___ -1 -26.67 155.33 TC -25.00 154.05 7 1 115
1929 SP EA 09:00:00 NR -25.51 154.58 132 81 ______P___P___ -1 -27.09 155.60 TC -25.06 154.14 7 8 321
1929 SP EA 11:00:00 NR -25.10 154.20 81 81 ______P___O___ -1 -27.38 155.80 TC -25.10 154.20 7 10 320
1929 SP EA 12:00:00 NR -25.12 154.22 81 81 ______P___P___ -1 -27.52 155.90 TC -25.12 154.22 7 1 146
1929 SP EA 15:00:00 NR -25.16 154.24 83 83 ______P___P___ -1 -27.95 156.22 TC -25.16 154.24 7 1 150
1929 SP EA 18:00:00 NR -25.23 154.29 93 93 ______P___P___ -1 -28.38 156.57 TC -25.23 154.29 7 3 146
1929 SP EA 21:00:00 NR -25.40 154.43 110 96 ______P___P___ -1 -28.82 156.94 TC -25.40 154.43 7 6 143
1929 SP EA 23:00:00 NR -25.60 154.60 bom 137 137 ______P___O___ -1 -29.11 157.20 TC -25.60 154.60 7 32 139
1929 SP EA 1929-03-02 00:00:00 TS -26.60 155.57 244 218 ______P__OP___ -1 -29.25 157.33 -30.00 158.90 TC -25.75 154.74 7 14 141
1929 SP EA 03:00:00 NR -26.33 155.27 219 218 ______P___P___ -1 -29.69 157.74 TC -26.33 155.27 7 5 143
1929 SP EA 06:00:00 NR -27.01 155.92 262 262 ______P___P___ -1 -30.13 158.16 TC -27.01 155.92 7 18 139
1929 SP EA 09:00:00 NR -27.69 156.58 299 299 ______P___P___ -1 -30.57 158.60 TC -27.69 156.58 7 17 139
1929 SP EA 11:00:00 NR -28.10 157.00 333 333 ______P___O___ -1 -30.86 158.90 TC -28.10 157.00 7 16 138
1929 SP EA 12:00:00 NR -28.27 157.18 352 352 ______P___P___ -1 -31.00 159.06 TC -28.27 157.18 7 13 136
1929 SP EA 15:00:00 NR -28.72 157.67 399 398 ______P___P___ -1 -31.44 159.52 TC -28.72 157.67 7 12 136
1929 SP EA 18:00:00 NR -29.10 158.11 437 437 ______P___P___ -1 -31.88 160.00 TC -29.10 158.11 7 17 140
1929 SP EA 21:00:00 NR -30.02 158.93 526 526 ______P___P___ -1 -32.31 160.48 TC -29.42 158.49 7 17 141
1929 SP EA 23:00:00 NR -30.20 159.12 bom 550 513 ______O___O___ -1 -32.60 160.80 TC -29.60 158.70 7 7 340
1929 SP EA 1929-03-03 00:00:00 NR -29.68 158.79 511 498 __________P___ -1 TC -29.68 158.79 7 5 345
1929 SP EA 03:00:00 NR -29.88 159.02 534 534 __________P___ -1 TC -29.88 159.02 7 5 135
1929 SP EA 06:00:00 NR -30.04 159.20 555 555 __________P___ -1 TC -30.04 159.20 7 4 135
1929 SP EA 09:00:00 NR -30.19 159.37 578 578 __________P___ -1 TC -30.19 159.37 7 4 135
1929 SP EA 11:00:00 NR -30.30 159.50 590 590 __________O___ -1 TC -30.30 159.50 7 5 135
1929 SP EA 12:00:00 NR -30.36 159.57 602 602 __________P___ -1 TC -30.36 159.57 7 6 134
1929 SP EA 15:00:00 NR -30.56 159.81 626 626 __________P___ -1 TC -30.56 159.81 7 6 134
1929 SP MM 18:00:00 NR -30.79 160.09 659 659 __________P___ -1 TC -30.79 160.09 7 7 134
1929 SP MM 21:00:00 NR -31.03 160.39 690 690 __________P___ -1 TC -31.03 160.39 7 7 133
1929 SP MM 23:00:00 NR -31.20 160.60 712 __________O___ -1 TC -31.20 160.60 7 7 133